sensor_id;sensor_type;location;lat;lon;timestamp;P1;durP1;ratioP1;P2;durP2;ratioP2
74059;SDS011;62414;53.436;8.828;2023-09-19T00:02:02;9.20;;;2.47;;
74059;SDS011;62414;53.436;8.828;2023-09-19T00:04:29;7.25;;;2.22;;
74059;SDS011;62414;53.436;8.828;2023-09-19T00:06:55;9.35;;;2.30;;
74059;SDS011;62414;53.436;8.828;2023-09-19T00:09:21;8.10;;;2.40;;
74059;SDS011;62414;53.436;8.828;2023-09-19T00:11:46;7.20;;;2.40;;
74059;SDS011;62414;53.436;8.828;2023-09-19T00:14:12;5.20;;;2.13;;
74059;SDS011;62414;53.436;8.828;2023-09-19T00:16:37;7.13;;;2.40;;
74059;SDS011;62414;53.436;8.828;2023-09-19T00:19:02;5.87;;;2.17;;
74059;SDS011;62414;53.436;8.828;2023-09-19T00:21:29;6.83;;;2.20;;
74059;SDS011;62414;53.436;8.828;2023-09-19T00:23:56;6.80;;;2.00;;
74059;SDS011;62414;53.436;8.828;2023-09-19T00:26:21;7.37;;;2.27;;
74059;SDS011;62414;53.436;8.828;2023-09-19T00:28:48;6.18;;;1.60;;
74059;SDS011;62414;53.436;8.828;2023-09-19T00:31:13;6.70;;;1.87;;
74059;SDS011;62414;53.436;8.828;2023-09-19T00:33:39;6.23;;;1.57;;
74059;SDS011;62414;53.436;8.828;2023-09-19T00:36:04;5.93;;;1.87;;
74059;SDS011;62414;53.436;8.828;2023-09-19T00:38:31;4.20;;;1.40;;
74059;SDS011;62414;53.436;8.828;2023-09-19T00:40:57;5.50;;;1.50;;
74059;SDS011;62414;53.436;8.828;2023-09-19T00:43:22;7.65;;;1.50;;
74059;SDS011;62414;53.436;8.828;2023-09-19T00:45:48;7.10;;;1.53;;
74059;SDS011;62414;53.436;8.828;2023-09-19T00:48:16;6.70;;;1.67;;
74059;SDS011;62414;53.436;8.828;2023-09-19T00:50:42;6.23;;;1.53;;
74059;SDS011;62414;53.436;8.828;2023-09-19T00:53:07;8.05;;;1.80;;
74059;SDS011;62414;53.436;8.828;2023-09-19T00:55:34;6.93;;;1.60;;
74059;SDS011;62414;53.436;8.828;2023-09-19T00:58:00;6.13;;;1.50;;
74059;SDS011;62414;53.436;8.828;2023-09-19T01:00:26;9.20;;;1.60;;
74059;SDS011;62414;53.436;8.828;2023-09-19T01:02:52;7.55;;;1.38;;
74059;SDS011;62414;53.436;8.828;2023-09-19T01:05:18;5.80;;;1.40;;
74059;SDS011;62414;53.436;8.828;2023-09-19T01:07:44;6.22;;;1.55;;
74059;SDS011;62414;53.436;8.828;2023-09-19T01:10:10;6.30;;;1.52;;
74059;SDS011;62414;53.436;8.828;2023-09-19T01:12:42;6.40;;;1.33;;
74059;SDS011;62414;53.436;8.828;2023-09-19T01:15:15;6.65;;;1.20;;
74059;SDS011;62414;53.436;8.828;2023-09-19T01:17:48;6.93;;;1.88;;
74059;SDS011;62414;53.436;8.828;2023-09-19T01:20:17;6.10;;;1.30;;
74059;SDS011;62414;53.436;8.828;2023-09-19T01:22:51;6.55;;;1.60;;
74059;SDS011;62414;53.436;8.828;2023-09-19T01:25:33;6.00;;;1.60;;
74059;SDS011;62414;53.436;8.828;2023-09-19T01:28:20;6.68;;;1.60;;
74059;SDS011;62414;53.436;8.828;2023-09-19T01:30:47;9.57;;;1.90;;
74059;SDS011;62414;53.436;8.828;2023-09-19T01:33:17;7.63;;;1.73;;
74059;SDS011;62414;53.436;8.828;2023-09-19T01:35:42;5.87;;;1.50;;
74059;SDS011;62414;53.436;8.828;2023-09-19T01:38:09;6.63;;;1.90;;
74059;SDS011;62414;53.436;8.828;2023-09-19T01:40:34;7.33;;;1.73;;
74059;SDS011;62414;53.436;8.828;2023-09-19T01:43:07;9.27;;;1.88;;
74059;SDS011;62414;53.436;8.828;2023-09-19T01:45:37;7.13;;;1.70;;
74059;SDS011;62414;53.436;8.828;2023-09-19T01:48:13;6.82;;;2.13;;
74059;SDS011;62414;53.436;8.828;2023-09-19T01:50:47;6.47;;;1.90;;
74059;SDS011;62414;53.436;8.828;2023-09-19T01:53:19;7.72;;;1.67;;
74059;SDS011;62414;53.436;8.828;2023-09-19T01:55:47;8.32;;;1.75;;
74059;SDS011;62414;53.436;8.828;2023-09-19T01:58:16;5.20;;;1.45;;
74059;SDS011;62414;53.436;8.828;2023-09-19T02:00:43;6.03;;;1.60;;
74059;SDS011;62414;53.436;8.828;2023-09-19T02:03:09;5.13;;;1.40;;
74059;SDS011;62414;53.436;8.828;2023-09-19T02:05:36;5.70;;;1.45;;
74059;SDS011;62414;53.436;8.828;2023-09-19T02:08:05;7.32;;;1.40;;
74059;SDS011;62414;53.436;8.828;2023-09-19T02:10:30;7.10;;;1.30;;
74059;SDS011;62414;53.436;8.828;2023-09-19T02:12:57;6.50;;;1.40;;
74059;SDS011;62414;53.436;8.828;2023-09-19T02:15:23;5.97;;;1.30;;
74059;SDS011;62414;53.436;8.828;2023-09-19T02:17:48;6.00;;;1.00;;
74059;SDS011;62414;53.436;8.828;2023-09-19T02:20:14;5.30;;;1.10;;
74059;SDS011;62414;53.436;8.828;2023-09-19T02:22:41;6.80;;;1.10;;
74059;SDS011;62414;53.436;8.828;2023-09-19T02:25:06;3.90;;;0.80;;
74059;SDS011;62414;53.436;8.828;2023-09-19T02:27:32;5.03;;;1.03;;
74059;SDS011;62414;53.436;8.828;2023-09-19T02:29:57;3.17;;;0.97;;
74059;SDS011;62414;53.436;8.828;2023-09-19T02:32:23;4.78;;;0.82;;
74059;SDS011;62414;53.436;8.828;2023-09-19T02:34:48;7.13;;;1.03;;
74059;SDS011;62414;53.436;8.828;2023-09-19T02:37:14;6.28;;;0.93;;
74059;SDS011;62414;53.436;8.828;2023-09-19T02:39:41;4.43;;;0.70;;
74059;SDS011;62414;53.436;8.828;2023-09-19T02:42:06;6.22;;;1.10;;
74059;SDS011;62414;53.436;8.828;2023-09-19T02:44:32;4.17;;;0.73;;
74059;SDS011;62414;53.436;8.828;2023-09-19T02:46:57;9.23;;;1.37;;
74059;SDS011;62414;53.436;8.828;2023-09-19T02:49:23;5.77;;;1.00;;
74059;SDS011;62414;53.436;8.828;2023-09-19T02:51:48;5.37;;;0.90;;
74059;SDS011;62414;53.436;8.828;2023-09-19T02:54:14;7.88;;;1.00;;
74059;SDS011;62414;53.436;8.828;2023-09-19T02:56:41;7.00;;;1.30;;
74059;SDS011;62414;53.436;8.828;2023-09-19T02:59:06;6.95;;;1.23;;
74059;SDS011;62414;53.436;8.828;2023-09-19T03:01:32;5.00;;;1.20;;
74059;SDS011;62414;53.436;8.828;2023-09-19T03:03:58;8.93;;;1.50;;
74059;SDS011;62414;53.436;8.828;2023-09-19T03:06:23;6.97;;;1.47;;
74059;SDS011;62414;53.436;8.828;2023-09-19T03:08:49;6.50;;;1.52;;
74059;SDS011;62414;53.436;8.828;2023-09-19T03:11:14;7.07;;;1.40;;
74059;SDS011;62414;53.436;8.828;2023-09-19T03:13:44;6.80;;;1.40;;
74059;SDS011;62414;53.436;8.828;2023-09-19T03:16:10;7.10;;;1.42;;
74059;SDS011;62414;53.436;8.828;2023-09-19T03:18:35;6.33;;;1.37;;
74059;SDS011;62414;53.436;8.828;2023-09-19T03:21:01;10.23;;;1.50;;
74059;SDS011;62414;53.436;8.828;2023-09-19T03:23:28;4.72;;;1.30;;
74059;SDS011;62414;53.436;8.828;2023-09-19T03:25:55;9.25;;;1.38;;
74059;SDS011;62414;53.436;8.828;2023-09-19T03:28:20;7.47;;;1.40;;
74059;SDS011;62414;53.436;8.828;2023-09-19T03:30:47;8.83;;;1.43;;
74059;SDS011;62414;53.436;8.828;2023-09-19T03:33:23;6.00;;;1.33;;
74059;SDS011;62414;53.436;8.828;2023-09-19T03:35:51;8.20;;;1.33;;
74059;SDS011;62414;53.436;8.828;2023-09-19T03:38:17;6.40;;;1.40;;
74059;SDS011;62414;53.436;8.828;2023-09-19T03:40:43;4.77;;;1.30;;
74059;SDS011;62414;53.436;8.828;2023-09-19T03:43:09;6.15;;;1.23;;
74059;SDS011;62414;53.436;8.828;2023-09-19T03:45:34;10.17;;;1.50;;
74059;SDS011;62414;53.436;8.828;2023-09-19T03:48:06;5.90;;;1.38;;
74059;SDS011;62414;53.436;8.828;2023-09-19T03:50:33;9.27;;;1.42;;
74059;SDS011;62414;53.436;8.828;2023-09-19T03:52:58;6.30;;;1.30;;
74059;SDS011;62414;53.436;8.828;2023-09-19T03:55:24;6.40;;;1.38;;
74059;SDS011;62414;53.436;8.828;2023-09-19T03:57:50;7.90;;;1.50;;
74059;SDS011;62414;53.436;8.828;2023-09-19T04:00:16;5.40;;;1.20;;
74059;SDS011;62414;53.436;8.828;2023-09-19T04:02:41;5.68;;;1.20;;
74059;SDS011;62414;53.436;8.828;2023-09-19T04:05:08;7.00;;;1.40;;
74059;SDS011;62414;53.436;8.828;2023-09-19T04:07:34;10.77;;;1.50;;
74059;SDS011;62414;53.436;8.828;2023-09-19T04:10:00;6.40;;;1.40;;
74059;SDS011;62414;53.436;8.828;2023-09-19T04:12:26;11.90;;;1.77;;
74059;SDS011;62414;53.436;8.828;2023-09-19T04:14:52;8.80;;;1.70;;
74059;SDS011;62414;53.436;8.828;2023-09-19T04:17:17;7.47;;;1.80;;
74059;SDS011;62414;53.436;8.828;2023-09-19T04:19:43;6.53;;;1.60;;
74059;SDS011;62414;53.436;8.828;2023-09-19T04:22:09;7.23;;;1.70;;
74059;SDS011;62414;53.436;8.828;2023-09-19T04:24:35;6.53;;;1.77;;
74059;SDS011;62414;53.436;8.828;2023-09-19T04:27:00;7.43;;;1.60;;
74059;SDS011;62414;53.436;8.828;2023-09-19T04:29:26;7.75;;;1.80;;
74059;SDS011;62414;53.436;8.828;2023-09-19T04:31:51;7.70;;;1.57;;
74059;SDS011;62414;53.436;8.828;2023-09-19T04:34:17;7.27;;;1.47;;
74059;SDS011;62414;53.436;8.828;2023-09-19T04:36:42;8.17;;;1.43;;
74059;SDS011;62414;53.436;8.828;2023-09-19T04:39:09;9.45;;;1.73;;
74059;SDS011;62414;53.436;8.828;2023-09-19T04:41:34;9.85;;;1.88;;
74059;SDS011;62414;53.436;8.828;2023-09-19T04:44:00;13.63;;;1.90;;
74059;SDS011;62414;53.436;8.828;2023-09-19T04:46:25;6.83;;;1.57;;
74059;SDS011;62414;53.436;8.828;2023-09-19T04:48:51;4.87;;;1.37;;
74059;SDS011;62414;53.436;8.828;2023-09-19T04:51:16;6.60;;;1.40;;
74059;SDS011;62414;53.436;8.828;2023-09-19T04:53:42;6.30;;;1.63;;
74059;SDS011;62414;53.436;8.828;2023-09-19T04:56:08;9.57;;;1.87;;
74059;SDS011;62414;53.436;8.828;2023-09-19T04:58:34;8.07;;;1.67;;
74059;SDS011;62414;53.436;8.828;2023-09-19T05:00:59;8.47;;;1.30;;
74059;SDS011;62414;53.436;8.828;2023-09-19T05:03:25;12.30;;;1.60;;
74059;SDS011;62414;53.436;8.828;2023-09-19T05:05:50;10.10;;;1.60;;
74059;SDS011;62414;53.436;8.828;2023-09-19T05:08:16;7.03;;;1.60;;
74059;SDS011;62414;53.436;8.828;2023-09-19T05:10:41;7.63;;;1.73;;
74059;SDS011;62414;53.436;8.828;2023-09-19T05:13:08;7.00;;;1.50;;
74059;SDS011;62414;53.436;8.828;2023-09-19T05:15:33;8.17;;;1.60;;
74059;SDS011;62414;53.436;8.828;2023-09-19T05:17:59;10.07;;;1.60;;
74059;SDS011;62414;53.436;8.828;2023-09-19T05:20:24;8.93;;;1.57;;
74059;SDS011;62414;53.436;8.828;2023-09-19T05:22:50;7.53;;;1.43;;
74059;SDS011;62414;53.436;8.828;2023-09-19T05:25:15;7.20;;;1.50;;
74059;SDS011;62414;53.436;8.828;2023-09-19T05:27:41;8.47;;;1.50;;
74059;SDS011;62414;53.436;8.828;2023-09-19T05:30:08;7.70;;;1.50;;
74059;SDS011;62414;53.436;8.828;2023-09-19T05:32:34;7.27;;;1.60;;
74059;SDS011;62414;53.436;8.828;2023-09-19T05:35:00;6.00;;;1.38;;
74059;SDS011;62414;53.436;8.828;2023-09-19T05:37:25;7.33;;;1.60;;
74059;SDS011;62414;53.436;8.828;2023-09-19T05:39:51;8.90;;;1.47;;
74059;SDS011;62414;53.436;8.828;2023-09-19T05:42:16;7.10;;;1.60;;
74059;SDS011;62414;53.436;8.828;2023-09-19T05:44:41;6.72;;;1.50;;
74059;SDS011;62414;53.436;8.828;2023-09-19T05:47:08;5.97;;;1.30;;
74059;SDS011;62414;53.436;8.828;2023-09-19T05:49:34;6.05;;;1.50;;
74059;SDS011;62414;53.436;8.828;2023-09-19T05:51:59;5.60;;;1.43;;
74059;SDS011;62414;53.436;8.828;2023-09-19T05:54:25;5.88;;;1.40;;
74059;SDS011;62414;53.436;8.828;2023-09-19T05:56:50;10.27;;;1.70;;
74059;SDS011;62414;53.436;8.828;2023-09-19T05:59:16;8.07;;;1.40;;
74059;SDS011;62414;53.436;8.828;2023-09-19T06:01:41;10.20;;;1.50;;
74059;SDS011;62414;53.436;8.828;2023-09-19T06:04:08;9.38;;;1.58;;
74059;SDS011;62414;53.436;8.828;2023-09-19T06:06:33;8.30;;;1.40;;
74059;SDS011;62414;53.436;8.828;2023-09-19T06:08:59;7.93;;;1.30;;
74059;SDS011;62414;53.436;8.828;2023-09-19T06:11:24;10.00;;;1.60;;
74059;SDS011;62414;53.436;8.828;2023-09-19T06:13:50;5.73;;;1.70;;
74059;SDS011;62414;53.436;8.828;2023-09-19T06:16:15;7.93;;;1.77;;
74059;SDS011;62414;53.436;8.828;2023-09-19T06:18:40;7.53;;;1.30;;
74059;SDS011;62414;53.436;8.828;2023-09-19T06:21:07;9.87;;;1.30;;
74059;SDS011;62414;53.436;8.828;2023-09-19T06:23:33;7.80;;;1.85;;
74059;SDS011;62414;53.436;8.828;2023-09-19T06:25:58;9.97;;;1.80;;
74059;SDS011;62414;53.436;8.828;2023-09-19T06:28:24;7.47;;;1.58;;
74059;SDS011;62414;53.436;8.828;2023-09-19T06:30:49;9.00;;;2.00;;
74059;SDS011;62414;53.436;8.828;2023-09-19T06:33:15;7.03;;;1.57;;
74059;SDS011;62414;53.436;8.828;2023-09-19T06:35:40;8.00;;;1.40;;
74059;SDS011;62414;53.436;8.828;2023-09-19T06:38:07;7.67;;;1.60;;
74059;SDS011;62414;53.436;8.828;2023-09-19T06:40:33;6.30;;;1.33;;
74059;SDS011;62414;53.436;8.828;2023-09-19T06:42:59;7.38;;;1.50;;
74059;SDS011;62414;53.436;8.828;2023-09-19T06:45:24;7.93;;;1.80;;
74059;SDS011;62414;53.436;8.828;2023-09-19T06:47:50;10.37;;;1.90;;
74059;SDS011;62414;53.436;8.828;2023-09-19T06:50:16;11.30;;;1.73;;
74059;SDS011;62414;53.436;8.828;2023-09-19T06:52:42;9.82;;;2.03;;
74059;SDS011;62414;53.436;8.828;2023-09-19T06:55:09;10.77;;;2.03;;
74059;SDS011;62414;53.436;8.828;2023-09-19T06:57:34;10.52;;;2.00;;
74059;SDS011;62414;53.436;8.828;2023-09-19T07:00:00;8.87;;;1.87;;
74059;SDS011;62414;53.436;8.828;2023-09-19T07:02:25;7.20;;;1.87;;
74059;SDS011;62414;53.436;8.828;2023-09-19T07:04:50;10.77;;;1.92;;
74059;SDS011;62414;53.436;8.828;2023-09-19T07:07:16;11.43;;;1.77;;
74059;SDS011;62414;53.436;8.828;2023-09-19T07:09:41;10.87;;;1.97;;
74059;SDS011;62414;53.436;8.828;2023-09-19T07:12:08;9.77;;;2.10;;
74059;SDS011;62414;53.436;8.828;2023-09-19T07:14:33;9.50;;;2.10;;
74059;SDS011;62414;53.436;8.828;2023-09-19T07:16:59;9.27;;;2.50;;
74059;SDS011;62414;53.436;8.828;2023-09-19T07:19:24;12.10;;;1.93;;
74059;SDS011;62414;53.436;8.828;2023-09-19T07:21:50;10.70;;;2.03;;
74059;SDS011;62414;53.436;8.828;2023-09-19T07:24:15;10.90;;;2.20;;
74059;SDS011;62414;53.436;8.828;2023-09-19T07:26:41;10.73;;;2.13;;
74059;SDS011;62414;53.436;8.828;2023-09-19T07:29:07;10.07;;;2.10;;
74059;SDS011;62414;53.436;8.828;2023-09-19T07:31:33;10.50;;;1.60;;
74059;SDS011;62414;53.436;8.828;2023-09-19T07:33:58;8.47;;;1.87;;
74059;SDS011;62414;53.436;8.828;2023-09-19T07:36:24;8.37;;;1.53;;
74059;SDS011;62414;53.436;8.828;2023-09-19T07:38:49;10.40;;;1.90;;
74059;SDS011;62414;53.436;8.828;2023-09-19T07:41:15;11.03;;;1.87;;
74059;SDS011;62414;53.436;8.828;2023-09-19T07:43:40;8.83;;;1.77;;
74059;SDS011;62414;53.436;8.828;2023-09-19T07:46:07;11.25;;;1.73;;
74059;SDS011;62414;53.436;8.828;2023-09-19T07:48:33;9.35;;;1.70;;
74059;SDS011;62414;53.436;8.828;2023-09-19T07:51:01;11.67;;;2.00;;
74059;SDS011;62414;53.436;8.828;2023-09-19T07:53:27;11.52;;;1.58;;
74059;SDS011;62414;53.436;8.828;2023-09-19T07:55:52;9.80;;;1.57;;
74059;SDS011;62414;53.436;8.828;2023-09-19T07:58:18;14.00;;;1.80;;
74059;SDS011;62414;53.436;8.828;2023-09-19T08:00:43;5.93;;;1.47;;
74059;SDS011;62414;53.436;8.828;2023-09-19T08:03:10;8.47;;;1.70;;
74059;SDS011;62414;53.436;8.828;2023-09-19T08:05:35;8.18;;;1.55;;
74059;SDS011;62414;53.436;8.828;2023-09-19T08:08:01;9.17;;;1.40;;
74059;SDS011;62414;53.436;8.828;2023-09-19T08:10:26;10.00;;;1.43;;
74059;SDS011;62414;53.436;8.828;2023-09-19T08:12:51;11.10;;;1.33;;
74059;SDS011;62414;53.436;8.828;2023-09-19T08:15:17;10.52;;;1.63;;
74059;SDS011;62414;53.436;8.828;2023-09-19T08:17:45;11.17;;;1.63;;
74059;SDS011;62414;53.436;8.828;2023-09-19T08:20:12;10.80;;;1.30;;
74059;SDS011;62414;53.436;8.828;2023-09-19T08:22:38;11.13;;;1.50;;
74059;SDS011;62414;53.436;8.828;2023-09-19T08:25:03;11.13;;;1.40;;
74059;SDS011;62414;53.436;8.828;2023-09-19T08:27:29;11.02;;;1.50;;
74059;SDS011;62414;53.436;8.828;2023-09-19T08:29:54;10.57;;;1.47;;
74059;SDS011;62414;53.436;8.828;2023-09-19T08:32:20;11.40;;;1.43;;
74059;SDS011;62414;53.436;8.828;2023-09-19T08:34:45;11.45;;;1.67;;
74059;SDS011;62414;53.436;8.828;2023-09-19T08:37:12;7.87;;;1.37;;
74059;SDS011;62414;53.436;8.828;2023-09-19T08:39:37;8.38;;;1.30;;
74059;SDS011;62414;53.436;8.828;2023-09-19T08:42:03;9.43;;;1.47;;
74059;SDS011;62414;53.436;8.828;2023-09-19T08:44:28;8.13;;;1.50;;
74059;SDS011;62414;53.436;8.828;2023-09-19T08:46:54;10.40;;;1.40;;
74059;SDS011;62414;53.436;8.828;2023-09-19T08:49:23;9.35;;;1.50;;
74059;SDS011;62414;53.436;8.828;2023-09-19T08:51:51;8.73;;;1.35;;
74059;SDS011;62414;53.436;8.828;2023-09-19T08:54:21;12.15;;;1.70;;
74059;SDS011;62414;53.436;8.828;2023-09-19T08:56:47;10.70;;;1.60;;
74059;SDS011;62414;53.436;8.828;2023-09-19T08:59:13;8.63;;;1.17;;
74059;SDS011;62414;53.436;8.828;2023-09-19T09:01:39;9.57;;;1.67;;
74059;SDS011;62414;53.436;8.828;2023-09-19T09:04:05;8.68;;;1.52;;
74059;SDS011;62414;53.436;8.828;2023-09-19T09:06:33;11.10;;;1.55;;
74059;SDS011;62414;53.436;8.828;2023-09-19T09:08:59;8.30;;;1.30;;
74059;SDS011;62414;53.436;8.828;2023-09-19T09:11:26;10.80;;;1.60;;
74059;SDS011;62414;53.436;8.828;2023-09-19T09:13:52;7.63;;;1.30;;
74059;SDS011;62414;53.436;8.828;2023-09-19T09:16:17;7.03;;;1.20;;
74059;SDS011;62414;53.436;8.828;2023-09-19T09:18:42;7.33;;;1.23;;
74059;SDS011;62414;53.436;8.828;2023-09-19T09:21:08;7.30;;;1.15;;
74059;SDS011;62414;53.436;8.828;2023-09-19T09:23:33;9.47;;;1.47;;
74059;SDS011;62414;53.436;8.828;2023-09-19T09:25:59;10.33;;;1.30;;
74059;SDS011;62414;53.436;8.828;2023-09-19T09:28:27;9.25;;;1.30;;
74059;SDS011;62414;53.436;8.828;2023-09-19T09:30:52;7.18;;;1.42;;
74059;SDS011;62414;53.436;8.828;2023-09-19T09:33:18;12.80;;;1.33;;
74059;SDS011;62414;53.436;8.828;2023-09-19T09:35:47;8.20;;;1.30;;
74059;SDS011;62414;53.436;8.828;2023-09-19T09:38:16;10.43;;;1.33;;
74059;SDS011;62414;53.436;8.828;2023-09-19T09:40:48;7.40;;;1.83;;
74059;SDS011;62414;53.436;8.828;2023-09-19T09:43:29;9.27;;;1.30;;
74059;SDS011;62414;53.436;8.828;2023-09-19T09:46:08;6.93;;;1.17;;
74059;SDS011;62414;53.436;8.828;2023-09-19T09:48:35;5.90;;;1.08;;
74059;SDS011;62414;53.436;8.828;2023-09-19T09:51:01;10.13;;;1.30;;
74059;SDS011;62414;53.436;8.828;2023-09-19T09:53:26;10.85;;;1.55;;
74059;SDS011;62414;53.436;8.828;2023-09-19T09:56:02;7.10;;;1.30;;
74059;SDS011;62414;53.436;8.828;2023-09-19T09:58:30;7.38;;;1.35;;
74059;SDS011;62414;53.436;8.828;2023-09-19T10:00:55;7.28;;;1.13;;
74059;SDS011;62414;53.436;8.828;2023-09-19T10:03:21;8.75;;;1.50;;
74059;SDS011;62414;53.436;8.828;2023-09-19T10:05:52;7.65;;;1.17;;
74059;SDS011;62414;53.436;8.828;2023-09-19T10:08:18;6.57;;;1.30;;
74059;SDS011;62414;53.436;8.828;2023-09-19T10:10:43;8.98;;;1.55;;
74059;SDS011;62414;53.436;8.828;2023-09-19T10:13:09;8.47;;;1.30;;
74059;SDS011;62414;53.436;8.828;2023-09-19T10:15:37;7.60;;;1.20;;
74059;SDS011;62414;53.436;8.828;2023-09-19T10:18:04;9.20;;;1.30;;
74059;SDS011;62414;53.436;8.828;2023-09-19T10:20:30;7.47;;;1.13;;
74059;SDS011;62414;53.436;8.828;2023-09-19T10:22:56;8.13;;;1.40;;
74059;SDS011;62414;53.436;8.828;2023-09-19T10:25:21;8.88;;;1.63;;
74059;SDS011;62414;53.436;8.828;2023-09-19T10:27:47;8.60;;;1.57;;
74059;SDS011;62414;53.436;8.828;2023-09-19T10:30:12;10.43;;;1.50;;
74059;SDS011;62414;53.436;8.828;2023-09-19T10:32:40;9.27;;;1.40;;
74059;SDS011;62414;53.436;8.828;2023-09-19T10:35:07;6.38;;;1.10;;
74059;SDS011;62414;53.436;8.828;2023-09-19T10:37:33;8.97;;;1.70;;
74059;SDS011;62414;53.436;8.828;2023-09-19T10:39:59;9.75;;;1.58;;
74059;SDS011;62414;53.436;8.828;2023-09-19T10:42:25;7.93;;;1.27;;
74059;SDS011;62414;53.436;8.828;2023-09-19T10:44:51;7.63;;;1.37;;
74059;SDS011;62414;53.436;8.828;2023-09-19T10:47:17;9.27;;;1.55;;
74059;SDS011;62414;53.436;8.828;2023-09-19T10:49:44;5.67;;;1.53;;
74059;SDS011;62414;53.436;8.828;2023-09-19T10:52:10;10.98;;;1.60;;
74059;SDS011;62414;53.436;8.828;2023-09-19T10:54:35;11.63;;;1.60;;
74059;SDS011;62414;53.436;8.828;2023-09-19T10:57:01;9.02;;;1.58;;
74059;SDS011;62414;53.436;8.828;2023-09-19T10:59:27;10.33;;;1.80;;
74059;SDS011;62414;53.436;8.828;2023-09-19T11:01:53;7.93;;;1.40;;
74059;SDS011;62414;53.436;8.828;2023-09-19T11:04:20;10.13;;;1.58;;
74059;SDS011;62414;53.436;8.828;2023-09-19T11:06:58;8.77;;;1.60;;
74059;SDS011;62414;53.436;8.828;2023-09-19T11:09:24;8.77;;;1.60;;
74059;SDS011;62414;53.436;8.828;2023-09-19T11:11:50;11.20;;;1.90;;
74059;SDS011;62414;53.436;8.828;2023-09-19T11:14:28;11.15;;;1.80;;
74059;SDS011;62414;53.436;8.828;2023-09-19T11:20:16;12.05;;;2.00;;
74059;SDS011;62414;53.436;8.828;2023-09-19T11:25:44;9.80;;;2.20;;
74059;SDS011;62414;53.436;8.828;2023-09-19T11:28:30;9.82;;;1.90;;
74059;SDS011;62414;53.436;8.828;2023-09-19T11:30:56;9.73;;;1.88;;
74059;SDS011;62414;53.436;8.828;2023-09-19T11:33:22;9.77;;;2.00;;
74059;SDS011;62414;53.436;8.828;2023-09-19T11:35:58;9.48;;;1.80;;
74059;SDS011;62414;53.436;8.828;2023-09-19T11:41:36;10.67;;;1.63;;
74059;SDS011;62414;53.436;8.828;2023-09-19T11:46:57;10.13;;;1.98;;
74059;SDS011;62414;53.436;8.828;2023-09-19T11:49:25;11.40;;;1.92;;
74059;SDS011;62414;53.436;8.828;2023-09-19T11:51:51;9.27;;;1.73;;
74059;SDS011;62414;53.436;8.828;2023-09-19T11:54:18;7.93;;;1.83;;
74059;SDS011;62414;53.436;8.828;2023-09-19T11:56:43;7.43;;;1.50;;
74059;SDS011;62414;53.436;8.828;2023-09-19T11:59:09;6.23;;;1.50;;
74059;SDS011;62414;53.436;8.828;2023-09-19T12:01:35;11.98;;;1.40;;
74059;SDS011;62414;53.436;8.828;2023-09-19T12:04:03;8.97;;;1.50;;
74059;SDS011;62414;53.436;8.828;2023-09-19T12:06:29;7.38;;;1.45;;
74059;SDS011;62414;53.436;8.828;2023-09-19T12:08:55;9.63;;;1.50;;
74059;SDS011;62414;53.436;8.828;2023-09-19T12:11:22;5.50;;;1.60;;
74059;SDS011;62414;53.436;8.828;2023-09-19T12:13:48;9.20;;;1.53;;
74059;SDS011;62414;53.436;8.828;2023-09-19T12:16:14;9.65;;;1.35;;
74059;SDS011;62414;53.436;8.828;2023-09-19T12:18:40;8.23;;;1.55;;
74059;SDS011;62414;53.436;8.828;2023-09-19T12:21:06;6.25;;;1.52;;
74059;SDS011;62414;53.436;8.828;2023-09-19T12:23:31;9.63;;;1.60;;
74059;SDS011;62414;53.436;8.828;2023-09-19T12:25:57;7.37;;;1.60;;
74059;SDS011;62414;53.436;8.828;2023-09-19T12:28:24;8.43;;;1.60;;
74059;SDS011;62414;53.436;8.828;2023-09-19T12:30:52;10.20;;;1.60;;
74059;SDS011;62414;53.436;8.828;2023-09-19T12:33:18;9.97;;;1.83;;
74059;SDS011;62414;53.436;8.828;2023-09-19T12:35:44;7.47;;;1.50;;
74059;SDS011;62414;53.436;8.828;2023-09-19T12:38:09;10.13;;;1.70;;
74059;SDS011;62414;53.436;8.828;2023-09-19T12:40:35;9.63;;;1.50;;
74059;SDS011;62414;53.436;8.828;2023-09-19T12:43:00;11.17;;;1.53;;
74059;SDS011;62414;53.436;8.828;2023-09-19T12:45:27;8.45;;;1.70;;
74059;SDS011;62414;53.436;8.828;2023-09-19T12:50:58;10.55;;;2.10;;
74059;SDS011;62414;53.436;8.828;2023-09-19T12:53:25;8.07;;;1.80;;
74059;SDS011;62414;53.436;8.828;2023-09-19T12:55:57;5.70;;;1.50;;
74059;SDS011;62414;53.436;8.828;2023-09-19T12:58:23;8.02;;;1.80;;
74059;SDS011;62414;53.436;8.828;2023-09-19T13:00:50;7.33;;;1.80;;
74059;SDS011;62414;53.436;8.828;2023-09-19T13:03:16;9.60;;;1.90;;
74059;SDS011;62414;53.436;8.828;2023-09-19T13:05:49;8.10;;;1.73;;
74059;SDS011;62414;53.436;8.828;2023-09-19T13:08:19;8.00;;;1.60;;
74059;SDS011;62414;53.436;8.828;2023-09-19T13:11:01;7.43;;;1.58;;
74059;SDS011;62414;53.436;8.828;2023-09-19T13:13:27;8.93;;;1.63;;
74059;SDS011;62414;53.436;8.828;2023-09-19T13:15:55;7.67;;;1.60;;
74059;SDS011;62414;53.436;8.828;2023-09-19T13:18:20;7.93;;;1.40;;
74059;SDS011;62414;53.436;8.828;2023-09-19T13:20:55;9.00;;;1.90;;
74059;SDS011;62414;53.436;8.828;2023-09-19T13:23:30;9.50;;;1.63;;
74059;SDS011;62414;53.436;8.828;2023-09-19T13:25:56;7.37;;;1.67;;
74059;SDS011;62414;53.436;8.828;2023-09-19T13:28:21;7.03;;;1.42;;
74059;SDS011;62414;53.436;8.828;2023-09-19T13:30:46;9.87;;;1.50;;
74059;SDS011;62414;53.436;8.828;2023-09-19T13:33:13;6.17;;;1.33;;
74059;SDS011;62414;53.436;8.828;2023-09-19T13:35:39;7.38;;;1.40;;
74059;SDS011;62414;53.436;8.828;2023-09-19T13:38:04;10.07;;;1.70;;
74059;SDS011;62414;53.436;8.828;2023-09-19T13:40:29;10.13;;;1.53;;
74059;SDS011;62414;53.436;8.828;2023-09-19T13:42:55;6.72;;;1.20;;
74059;SDS011;62414;53.436;8.828;2023-09-19T13:45:20;7.77;;;1.40;;
74059;SDS011;62414;53.436;8.828;2023-09-19T13:47:46;9.03;;;1.40;;
74059;SDS011;62414;53.436;8.828;2023-09-19T13:50:15;8.05;;;1.58;;
74059;SDS011;62414;53.436;8.828;2023-09-19T13:52:41;12.43;;;1.63;;
74059;SDS011;62414;53.436;8.828;2023-09-19T13:55:07;6.40;;;1.30;;
74059;SDS011;62414;53.436;8.828;2023-09-19T13:57:32;8.85;;;1.58;;
74059;SDS011;62414;53.436;8.828;2023-09-19T13:59:58;8.67;;;1.50;;
74059;SDS011;62414;53.436;8.828;2023-09-19T14:02:23;11.07;;;2.17;;
74059;SDS011;62414;53.436;8.828;2023-09-19T14:04:48;9.10;;;1.47;;
74059;SDS011;62414;53.436;8.828;2023-09-19T14:07:15;6.47;;;1.17;;
74059;SDS011;62414;53.436;8.828;2023-09-19T14:09:41;8.90;;;1.40;;
74059;SDS011;62414;53.436;8.828;2023-09-19T14:12:06;7.40;;;1.30;;
74059;SDS011;62414;53.436;8.828;2023-09-19T14:14:32;7.83;;;1.27;;
74059;SDS011;62414;53.436;8.828;2023-09-19T14:16:57;6.63;;;1.50;;
74059;SDS011;62414;53.436;8.828;2023-09-19T14:19:23;7.47;;;1.40;;
74059;SDS011;62414;53.436;8.828;2023-09-19T14:21:48;8.83;;;1.50;;
74059;SDS011;62414;53.436;8.828;2023-09-19T14:24:17;7.20;;;1.30;;
74059;SDS011;62414;53.436;8.828;2023-09-19T14:26:43;6.55;;;1.30;;
74059;SDS011;62414;53.436;8.828;2023-09-19T14:29:08;9.37;;;1.37;;
74059;SDS011;62414;53.436;8.828;2023-09-19T14:31:34;7.45;;;1.30;;
74059;SDS011;62414;53.436;8.828;2023-09-19T14:34:02;7.67;;;1.30;;
74059;SDS011;62414;53.436;8.828;2023-09-19T14:36:27;7.93;;;1.30;;
74059;SDS011;62414;53.436;8.828;2023-09-19T14:38:53;7.57;;;1.20;;
74059;SDS011;62414;53.436;8.828;2023-09-19T14:41:20;7.18;;;1.20;;
74059;SDS011;62414;53.436;8.828;2023-09-19T14:43:45;6.23;;;1.37;;
74059;SDS011;62414;53.436;8.828;2023-09-19T14:46:10;5.97;;;1.20;;
74059;SDS011;62414;53.436;8.828;2023-09-19T14:48:36;6.20;;;1.17;;
74059;SDS011;62414;53.436;8.828;2023-09-19T14:51:02;8.53;;;1.30;;
74059;SDS011;62414;53.436;8.828;2023-09-19T14:53:27;6.55;;;1.30;;
74059;SDS011;62414;53.436;8.828;2023-09-19T14:55:53;9.87;;;1.20;;
74059;SDS011;62414;53.436;8.828;2023-09-19T14:58:20;9.25;;;1.50;;